Time;durP1;ratioP1;P1;durP2;ratioP2;P2;SDS_P1;SDS_P2;PMS_P1;PMS_P2;Temp;Humidity;BMP_temperature;BMP_pressure;BME280_temperature;BME280_humidity;BME280_pressure;Samples;Min_cycle;Max_cycle;Signal;HPM_P1;HPM_P2
2021/03/06 00:03:32;;;;;;;6.85;2.40;;;;;;;-2.57;40.02;98757.09;10623495;28;20055;-53
2021/03/06 00:08:34;;;;;;;6.60;2.28;;;;;;;-2.59;39.74;98764.06;10624650;28;20063;-50
2021/03/06 00:13:36;;;;;;;8.40;2.60;;;;;;;-2.62;39.85;98752.19;10625207;27;20047;-51
2021/03/06 00:18:39;;;;;;;9.13;2.92;;;;;;;-2.63;39.76;98754.81;10613295;27;20146;-50
2021/03/06 00:23:40;;;;;;;7.50;2.50;;;;;;;-2.67;39.70;98756.72;10660851;27;20394;-51
2021/03/06 00:28:42;;;;;;;5.45;2.50;;;;;;;-2.73;40.17;98762.13;10679563;27;20107;-52
2021/03/06 00:33:45;;;;;;;4.03;1.67;;;;;;;-2.75;40.02;98752.81;10677054;27;20070;-52
2021/03/06 00:38:46;;;;;;;5.13;1.80;;;;;;;-2.81;40.25;98759.06;10638698;27;20038;-52
2021/03/06 00:43:48;;;;;;;6.28;2.50;;;;;;;-2.85;40.31;98747.25;10630042;27;20043;-52
2021/03/06 00:48:51;;;;;;;6.68;2.35;;;;;;;-2.89;40.46;98750.91;10629592;27;20120;-52
2021/03/06 00:53:53;;;;;;;6.37;2.73;;;;;;;-2.94;40.45;98753.66;10629899;27;20038;-50
2021/03/06 00:58:55;;;;;;;9.32;2.72;;;;;;;-2.97;40.64;98753.78;10628542;27;20318;-50
2021/03/06 01:03:58;;;;;;;6.97;2.65;;;;;;;-2.98;40.95;98747.00;10610425;27;20047;-51
2021/03/06 01:09:00;;;;;;;4.90;1.77;;;;;;;-2.97;40.29;98748.66;10628416;27;20047;-52
2021/03/06 01:14:03;;;;;;;6.45;2.20;;;;;;;-2.99;40.56;98749.63;10610127;27;20043;-50
2021/03/06 01:19:06;;;;;;;7.78;2.97;;;;;;;-3.03;40.51;98754.91;10628396;27;20208;-52
2021/03/06 01:24:08;;;;;;;6.50;2.33;;;;;;;-3.03;40.82;98748.94;10652576;27;20129;-50
2021/03/06 01:29:10;;;;;;;7.97;3.03;;;;;;;-3.04;40.47;98749.84;10671813;27;20392;-51
2021/03/06 01:34:12;;;;;;;5.05;2.80;;;;;;;-3.00;40.43;98769.38;10670692;27;20057;-52
2021/03/06 01:39:15;;;;;;;6.67;2.53;;;;;;;-3.03;40.06;98761.78;10633456;27;20487;-52
2021/03/06 01:44:16;;;;;;;6.53;2.97;;;;;;;-3.05;40.55;98764.44;10628191;27;20051;-53
2021/03/06 01:49:19;;;;;;;6.18;2.42;;;;;;;-3.10;40.32;98774.09;10626858;27;20448;-50
2021/03/06 01:54:24;;;;;;;6.65;2.75;;;;;;;-3.13;40.47;98773.38;10608823;27;20086;-52
2021/03/06 01:59:26;;;;;;;5.70;2.83;;;;;;;-3.20;40.37;98772.84;10607968;27;20039;-52
2021/03/06 02:04:29;;;;;;;7.68;2.90;;;;;;;-3.21;40.49;98770.31;10626608;27;20042;-52
2021/03/06 02:09:31;;;;;;;7.53;3.20;;;;;;;-3.27;40.56;98777.38;10627460;27;20047;-53
2021/03/06 02:14:55;;;;;;;10.73;3.17;;;;;;;-3.28;40.62;98780.03;10630012;27;20047;-52
2021/03/06 02:20:22;;;;;;;5.18;2.30;;;;;;;-3.30;40.23;98784.41;10632690;27;20051;-54
2021/03/06 02:25:45;;;;;;;8.88;3.22;;;;;;;-3.39;40.48;98788.19;10567431;28;20039;-52
2021/03/06 02:30:49;;;;;;;7.28;3.08;;;;;;;-3.49;40.43;98790.31;10585140;28;20070;-51
2021/03/06 02:35:51;;;;;;;7.85;2.97;;;;;;;-3.49;40.63;98786.94;10594489;27;20043;-52
2021/03/06 02:40:53;;;;;;;8.13;3.15;;;;;;;-3.55;40.54;98802.59;10625971;27;20134;-50
2021/03/06 02:45:56;;;;;;;6.63;2.58;;;;;;;-3.66;40.48;98804.78;10625289;27;20368;-50
2021/03/06 02:50:58;;;;;;;6.87;3.10;;;;;;;-3.75;40.58;98811.16;10625971;27;20084;-52
2021/03/06 02:56:00;;;;;;;6.22;2.28;;;;;;;-3.78;40.87;98812.09;10625241;27;20047;-50
2021/03/06 03:01:06;;;;;;;10.18;3.00;;;;;;;-3.84;40.55;98819.22;10624488;27;20403;-50
2021/03/06 03:06:15;;;;;;;8.43;3.20;;;;;;;-3.93;40.57;98817.88;10626343;27;20071;-55
2021/03/06 03:11:22;;;;;;;9.23;3.63;;;;;;;-3.99;40.83;98820.69;10625173;27;20051;-50
2021/03/06 03:16:32;;;;;;;10.23;3.95;;;;;;;-4.07;40.88;98823.53;10606588;28;20058;-53
2021/03/06 03:21:35;;;;;;;9.35;3.85;;;;;;;-4.18;41.07;98829.09;10633815;27;20059;-50
2021/03/06 03:26:39;;;;;;;10.90;3.95;;;;;;;-4.15;40.63;98827.31;10666954;27;20065;-52
2021/03/06 03:31:46;;;;;;;9.05;3.72;;;;;;;-4.22;40.76;98825.00;10666478;27;20066;-50
2021/03/06 03:36:49;;;;;;;6.78;2.97;;;;;;;-4.27;40.89;98834.59;10651816;27;20096;-51
2021/03/06 03:41:52;;;;;;;6.20;3.00;;;;;;;-4.32;40.99;98836.50;10624302;28;20043;-52
2021/03/06 03:46:55;;;;;;;9.93;3.92;;;;;;;-4.39;41.00;98835.06;10623161;27;20058;-50
2021/03/06 03:51:57;;;;;;;6.95;3.08;;;;;;;-4.43;41.09;98842.06;10631929;27;20057;-51
2021/03/06 03:56:58;;;;;;;13.00;3.90;;;;;;;-4.42;40.96;98833.44;10632311;27;20498;-52
2021/03/06 04:02:01;;;;;;;7.63;3.80;;;;;;;-4.43;40.89;98833.53;10634767;27;20509;-52
2021/03/06 04:07:03;;;;;;;10.13;3.60;;;;;;;-4.46;41.22;98831.06;10631350;27;20053;-50
2021/03/06 04:12:06;;;;;;;8.10;3.47;;;;;;;-4.45;41.45;98840.44;10635324;27;20480;-52
2021/03/06 04:17:08;;;;;;;8.80;3.33;;;;;;;-4.42;41.59;98845.44;10631381;27;20505;-50
2021/03/06 04:22:10;;;;;;;5.78;2.22;;;;;;;-3.90;42.53;98832.31;10646105;27;20070;-53
2021/03/06 04:27:12;;;;;;;8.10;4.10;;;;;;;-2.84;42.91;98839.78;10628473;27;20151;-52
2021/03/06 04:32:14;;;;;;;8.50;3.65;;;;;;;-1.62;43.36;98835.78;10630375;27;20095;-51
2021/03/06 04:37:16;;;;;;;10.90;3.90;;;;;;;-0.29;42.65;98830.59;10630225;27;20138;-53
2021/03/06 04:42:18;;;;;;;11.65;4.57;;;;;;;0.94;41.74;98827.94;10628555;27;20601;-52
2021/03/06 04:47:21;;;;;;;9.98;4.55;;;;;;;1.72;41.08;98836.06;10628405;27;20051;-52
2021/03/06 04:52:23;;;;;;;10.82;4.75;;;;;;;2.85;40.51;98833.91;10629488;27;20398;-53
2021/03/06 04:57:26;;;;;;;9.70;3.90;;;;;;;4.11;39.38;98838.94;10628311;27;20043;-52
2021/03/06 05:02:29;;;;;;;7.82;4.20;;;;;;;6.03;38.18;98834.75;10617778;27;20051;-52
2021/03/06 05:07:30;;;;;;;7.95;4.10;;;;;;;7.61;36.81;98834.66;10585787;28;20507;-52
2021/03/06 05:12:32;;;;;;;8.15;4.68;;;;;;;9.46;35.32;98835.41;10587369;27;20043;-53
2021/03/06 05:17:35;;;;;;;9.80;4.57;;;;;;;11.29;33.47;98837.56;10586816;28;20071;-55
2021/03/06 05:22:37;;;;;;;8.60;4.40;;;;;;;12.95;32.22;98841.22;10604686;27;20051;-52
2021/03/06 05:27:38;;;;;;;9.10;3.85;;;;;;;14.17;30.24;98845.28;10622394;27;20051;-53
2021/03/06 05:32:41;;;;;;;9.77;4.30;;;;;;;15.06;28.52;98837.66;10618286;27;20385;-53
2021/03/06 05:37:43;;;;;;;11.20;5.10;;;;;;;16.31;27.70;98850.06;10626656;27;20043;-53
2021/03/06 05:42:44;;;;;;;12.00;5.20;;;;;;;17.44;25.12;98854.47;10607897;27;20446;-54
2021/03/06 05:47:47;;;;;;;9.35;4.32;;;;;;;18.57;24.28;98864.75;10637996;27;20099;-54
2021/03/06 05:52:51;;;;;;;10.18;5.22;;;;;;;19.60;23.17;98865.09;10628172;27;20428;-55
2021/03/06 05:57:53;;;;;;;9.35;4.55;;;;;;;20.34;21.96;98876.31;10626272;27;20495;-54
2021/03/06 06:02:57;;;;;;;10.10;3.80;;;;;;;21.70;20.87;98875.63;10631364;27;20091;-54
2021/03/06 06:08:03;;;;;;;6.20;3.42;;;;;;;22.35;19.24;98872.38;10654033;27;20052;-56
2021/03/06 06:13:04;;;;;;;7.90;2.95;;;;;;;21.18;19.92;98876.97;10607651;27;20138;-54
2021/03/06 06:18:07;;;;;;;6.13;3.35;;;;;;;22.34;18.64;98868.09;10616871;27;20072;-54
2021/03/06 06:23:10;;;;;;;;;;;;;;;24.40;20.64;98879.72;10638073;27;20511;-53
2021/03/06 06:28:11;;;;;;;8.07;3.58;;;;;;;26.34;17.12;98869.13;10668830;27;19922;-53
2021/03/06 06:33:32;;;;;;;7.67;3.27;;;;;;;27.58;14.92;98864.47;10670485;27;20077;-63
2021/03/06 06:38:44;;;;;;;9.02;2.97;;;;;;;27.00;14.05;98858.13;10640743;27;20409;-56
2021/03/06 06:43:46;;;;;;;13.27;4.85;;;;;;;26.32;14.91;98860.47;10624992;27;20039;-55
2021/03/06 06:48:57;;;;;;;13.13;5.17;;;;;;;27.05;13.75;98869.78;10624400;27;20055;-54
2021/03/06 06:54:10;;;;;;;11.57;4.93;;;;;;;28.23;13.16;98870.41;10606109;27;20371;-55
2021/03/06 06:59:11;;;;;;;12.18;5.25;;;;;;;29.45;12.69;98871.56;10622762;27;20508;-54
2021/03/06 07:04:14;;;;;;;10.80;3.88;;;;;;;28.81;12.24;98873.75;10584504;28;20090;-53
2021/03/06 07:09:16;;;;;;;10.80;4.13;;;;;;;30.15;11.26;98868.88;10583714;28;20054;-55
2021/03/06 07:14:36;;;;;;;8.15;3.65;;;;;;;30.83;10.26;98860.06;10581427;28;20392;-55
2021/03/06 07:19:41;;;;;;;7.78;3.20;;;;;;;31.69;9.67;98858.41;10581518;28;20067;-55
2021/03/06 07:24:45;;;;;;;9.70;3.22;;;;;;;32.41;9.47;98847.38;10606089;27;20050;-55
2021/03/06 07:29:46;;;;;;;7.03;3.22;;;;;;;33.05;9.02;98850.47;10632218;27;20051;-55
2021/03/06 07:34:52;;;;;;;6.38;3.08;;;;;;;32.75;8.34;98851.78;10613596;27;20502;-55
2021/03/06 07:39:58;;;;;;;7.15;2.63;;;;;;;32.61;8.25;98849.03;10613196;27;20471;-55
2021/03/06 07:45:01;;;;;;;8.32;2.95;;;;;;;32.19;8.18;98841.75;10623447;27;20171;-55
2021/03/06 07:50:07;;;;;;;6.07;2.70;;;;;;;32.77;7.55;98839.50;10611804;27;20061;-54
2021/03/06 07:55:11;;;;;;;5.30;2.47;;;;;;;33.27;7.07;98841.63;10611255;27;20043;-54
2021/03/06 08:00:14;;;;;;;11.70;2.80;;;;;;;33.52;6.72;98836.84;10590602;28;20051;-55
2021/03/06 08:05:45;;;;;;;7.32;2.72;;;;;;;32.47;7.02;98838.06;10620149;27;20199;-54
2021/03/06 08:11:05;;;;;;;5.45;2.60;;;;;;;31.77;6.93;98829.75;10629779;27;20057;-55
2021/03/06 08:16:36;;;;;;;7.93;2.70;;;;;;;29.11;7.36;98831.56;10596380;27;20066;-53
2021/03/06 08:21:40;;;;;;;6.38;3.20;;;;;;;24.56;9.16;98844.03;10612638;28;20154;-55
2021/03/06 08:26:42;;;;;;;7.07;3.85;;;;;;;21.28;10.46;98835.34;10586006;28;20484;-58
2021/03/06 08:31:44;;;;;;;8.20;3.75;;;;;;;20.56;11.28;98840.25;10587692;28;20109;-56
2021/03/06 08:36:47;;;;;;;10.80;5.13;;;;;;;16.86;13.73;98839.78;10595066;27;20052;-57
2021/03/06 08:41:48;;;;;;;8.67;4.50;;;;;;;13.84;15.73;98847.25;10569949;28;20040;-57
2021/03/06 08:46:50;;;;;;;8.68;4.00;;;;;;;15.03;16.47;98842.50;10585433;27;20088;-55
2021/03/06 08:51:54;;;;;;;9.10;3.10;;;;;;;19.00;13.68;98833.25;10585193;28;20135;-54
2021/03/06 08:56:56;;;;;;;6.82;2.90;;;;;;;22.28;11.47;98824.28;10584909;28;20086;-55
2021/03/06 09:01:57;;;;;;;7.57;2.53;;;;;;;18.63;12.75;98832.81;10586436;28;20134;-54
2021/03/06 09:07:00;;;;;;;13.35;3.05;;;;;;;16.17;13.52;98840.34;10596473;27;20133;-54
2021/03/06 09:12:03;;;;;;;5.72;2.78;;;;;;;13.85;14.19;98821.66;10626594;27;20126;-54
2021/03/06 09:17:05;;;;;;;4.75;2.47;;;;;;;11.72;14.98;98842.84;10587723;27;20150;-54
2021/03/06 09:22:10;;;;;;;4.47;1.73;;;;;;;10.45;16.10;98840.75;10607924;27;20402;-53
2021/03/06 09:27:12;;;;;;;4.28;1.95;;;;;;;10.78;15.98;98843.66;10670306;27;20482;-54
2021/03/06 09:32:14;;;;;;;5.57;1.92;;;;;;;10.37;15.98;98835.41;10670287;27;20462;-55
2021/03/06 09:37:17;;;;;;;4.18;1.60;;;;;;;9.85;16.22;98838.66;10649912;27;20047;-55
2021/03/06 09:42:24;;;;;;;5.13;1.77;;;;;;;8.70;16.81;98844.16;10628819;27;20047;-55
2021/03/06 09:47:26;;;;;;;6.35;2.00;;;;;;;7.96;17.25;98854.28;10626605;27;20054;-55
2021/03/06 09:52:32;;;;;;;5.05;1.95;;;;;;;7.50;17.83;98847.81;10627335;27;20043;-58
2021/03/06 09:57:34;;;;;;;6.65;2.28;;;;;;;7.26;17.83;98850.75;10628796;27;20433;-54
2021/03/06 10:02:50;;;;;;;4.85;1.67;;;;;;;6.72;19.53;98839.59;10628111;27;20159;-52
2021/03/06 10:07:55;;;;;;;5.43;2.50;;;;;;;6.60;19.61;98840.59;10628888;27;20126;-55
2021/03/06 10:12:57;;;;;;;4.38;1.80;;;;;;;6.47;19.67;98843.41;10633040;27;20398;-54
2021/03/06 10:18:06;;;;;;;8.15;2.13;;;;;;;6.39;19.67;98830.97;10606415;27;20053;-52
2021/03/06 10:23:10;;;;;;;5.15;2.13;;;;;;;6.20;20.19;98838.63;10625223;27;20051;-54
2021/03/06 10:28:14;;;;;;;5.25;2.08;;;;;;;6.50;20.52;98830.09;10626565;27;20054;-54
2021/03/06 10:33:22;;;;;;;5.20;1.80;;;;;;;6.64;20.18;98829.75;10624352;27;20112;-55
2021/03/06 10:38:31;;;;;;;5.75;1.75;;;;;;;6.46;20.58;98826.06;10624512;27;20481;-53
2021/03/06 10:43:35;;;;;;;5.05;2.13;;;;;;;6.64;21.27;98828.94;10624702;27;20133;-54
2021/03/06 10:48:37;;;;;;;9.48;2.97;;;;;;;5.47;23.89;98827.84;10625107;27;20039;-52
2021/03/06 10:53:39;;;;;;;4.57;1.67;;;;;;;5.52;24.00;98840.53;10606783;27;20495;-53
2021/03/06 10:58:43;;;;;;;7.18;1.98;;;;;;;5.77;24.02;98823.78;10624133;27;20108;-55
2021/03/06 11:03:46;;;;;;;4.18;1.35;;;;;;;5.48;23.61;98816.50;10606093;27;20047;-54
2021/03/06 11:09:00;;;;;;;3.57;1.40;;;;;;;4.71;24.52;98812.88;10622710;27;20110;-53
2021/03/06 11:14:02;;;;;;;3.92;1.40;;;;;;;4.82;23.91;98820.72;10623764;27;20062;-53
2021/03/06 11:19:05;;;;;;;3.40;1.10;;;;;;;5.05;23.69;98798.97;10621250;27;20061;-52
2021/03/06 11:24:09;;;;;;;4.23;1.43;;;;;;;4.93;24.15;98797.31;10624296;28;20051;-52
2021/03/06 11:29:11;;;;;;;4.22;1.38;;;;;;;4.70;23.93;98806.00;10648234;27;20332;-53
2021/03/06 11:34:13;;;;;;;6.95;1.80;;;;;;;4.87;23.82;98792.56;10648387;27;20138;-53
2021/03/06 11:39:15;;;;;;;5.03;2.00;;;;;;;4.72;23.67;98789.34;10662220;27;20475;-54
2021/03/06 11:44:17;;;;;;;10.38;2.20;;;;;;;4.61;24.04;98784.94;10622763;28;20043;-54
2021/03/06 11:49:19;;;;;;;8.15;1.95;;;;;;;4.82;23.83;98782.47;10623227;28;20057;-54
2021/03/06 11:54:21;;;;;;;8.93;2.50;;;;;;;5.31;23.92;98777.88;10617739;28;20108;-53
2021/03/06 11:59:23;;;;;;;6.85;1.90;;;;;;;5.70;23.00;98776.50;10607955;28;20137;-53
2021/03/06 12:04:25;;;;;;;6.90;2.45;;;;;;;5.83;22.96;98783.34;10585133;28;20104;-59
2021/03/06 12:09:27;;;;;;;4.47;1.70;;;;;;;6.02;23.13;98774.91;10630619;27;20383;-61
2021/03/06 12:14:29;;;;;;;5.28;2.00;;;;;;;5.51;24.50;98776.28;10633439;27;20053;-56
2021/03/06 12:19:31;;;;;;;4.03;1.50;;;;;;;5.34;24.94;98775.03;10630449;27;20142;-54
2021/03/06 12:24:33;;;;;;;5.95;2.13;;;;;;;5.08;24.88;98774.47;10629553;27;20051;-52
2021/03/06 12:29:35;;;;;;;5.57;1.85;;;;;;;4.91;24.81;98769.72;10630479;27;20508;-51
2021/03/06 12:34:37;;;;;;;4.75;1.80;;;;;;;5.15;24.83;98770.44;10630299;27;20047;-54
2021/03/06 12:39:40;;;;;;;6.72;2.03;;;;;;;5.36;23.97;98752.28;10615654;27;20061;-54
2021/03/06 12:44:41;;;;;;;3.88;1.30;;;;;;;5.14;24.17;98768.78;10630386;27;20126;-56
2021/03/06 12:49:43;;;;;;;5.57;1.90;;;;;;;5.06;24.29;98756.34;10629844;27;20051;-54
2021/03/06 12:54:46;;;;;;;4.60;1.70;;;;;;;4.24;24.86;98770.41;10631275;27;20194;-54
2021/03/06 12:59:48;;;;;;;4.03;1.20;;;;;;;4.03;25.38;98784.03;10629670;27;20043;-52
2021/03/06 13:04:50;;;;;;;3.97;1.40;;;;;;;3.86;25.54;98771.44;10628797;27;20047;-53
2021/03/06 13:09:52;;;;;;;4.38;1.52;;;;;;;3.69;25.81;98778.72;10628277;27;20108;-51
2021/03/06 13:14:54;;;;;;;5.85;1.92;;;;;;;3.39;25.85;98791.28;10628457;27;20095;-55
2021/03/06 13:19:56;;;;;;;5.55;1.80;;;;;;;3.14;25.96;98772.19;10626862;27;20086;-54
2021/03/06 13:24:59;;;;;;;8.82;3.13;;;;;;;2.82;26.19;98763.19;10627537;27;20134;-54
2021/03/06 13:30:00;;;;;;;7.97;2.20;;;;;;;2.62;25.99;98760.19;10628787;27;20085;-52
2021/03/06 13:35:02;;;;;;;5.13;1.95;;;;;;;2.58;26.30;98750.94;10628675;27;20054;-54
2021/03/06 13:40:07;;;;;;;7.22;1.83;;;;;;;2.58;26.24;98758.72;10627618;27;20054;-54
2021/03/06 13:45:11;;;;;;;5.70;1.45;;;;;;;2.46;25.57;98754.34;10627872;27;20039;-53
2021/03/06 13:50:14;;;;;;;5.18;1.95;;;;;;;2.32;25.90;98750.09;10626321;27;20395;-52
2021/03/06 13:55:17;;;;;;;5.25;1.60;;;;;;;2.39;26.36;98759.13;10626959;27;20069;-52
2021/03/06 14:00:19;;;;;;;;;;;;;;;2.16;26.26;98755.47;10628982;27;20066;-52
2021/03/06 14:05:21;;;;;;;6.97;1.52;;;;;;;1.90;26.16;98733.84;10626671;27;19935;-53
2021/03/06 14:10:25;;;;;;;3.83;1.60;;;;;;;1.57;27.07;98740.28;10611122;27;20107;-55
2021/03/06 14:15:27;;;;;;;;;;;;;;;1.42;26.78;98737.81;10588582;28;20075;-52
2021/03/06 14:20:28;;;;;;;4.85;1.60;;;;;;;1.46;26.46;98734.13;10585876;27;19927;-53
2021/03/06 14:25:31;;;;;;;5.32;1.30;;;;;;;1.30;27.10;98732.50;10636539;27;20061;-52
2021/03/06 14:30:33;;;;;;;8.23;2.88;;;;;;;1.08;26.92;98739.94;10599023;27;20048;-54
2021/03/06 14:35:35;;;;;;;7.00;2.45;;;;;;;0.92;27.42;98734.84;10569322;27;20047;-55
2021/03/06 14:40:37;;;;;;;9.20;2.58;;;;;;;0.88;26.97;98736.78;10624475;27;20450;-57
2021/03/06 14:45:39;;;;;;;5.75;2.00;;;;;;;0.72;27.27;98735.25;10621913;27;20039;-55
2021/03/06 14:50:41;;;;;;;6.30;2.38;;;;;;;0.53;27.42;98720.81;10622954;27;20046;-52
2021/03/06 14:55:44;;;;;;;6.20;1.85;;;;;;;0.51;27.81;98722.66;10625503;27;20043;-52
2021/03/06 15:00:45;;;;;;;6.28;2.28;;;;;;;0.30;28.39;98719.59;10626403;27;20043;-54
2021/03/06 15:05:47;;;;;;;4.65;2.25;;;;;;;0.30;28.95;98729.94;10610368;27;20051;-52
2021/03/06 15:10:50;;;;;;;6.15;2.20;;;;;;;0.30;29.27;98721.34;10581342;28;20425;-54
2021/03/06 15:15:52;;;;;;;15.30;2.20;;;;;;;0.27;29.48;98730.09;10582120;28;20039;-58
2021/03/06 15:20:54;;;;;;;8.73;3.08;;;;;;;0.40;29.35;98725.91;10614081;27;20071;-53
2021/03/06 15:25:57;;;;;;;4.45;1.80;;;;;;;0.20;29.71;98723.66;10621622;28;20035;-52
2021/03/06 15:30:59;;;;;;;6.25;2.10;;;;;;;0.10;30.46;98717.34;10622177;28;20054;-52
2021/03/06 15:36:01;;;;;;;4.00;1.80;;;;;;;-0.07;30.11;98716.56;10616545;28;20043;-52
2021/03/06 15:41:05;;;;;;;4.20;1.67;;;;;;;-0.32;30.50;98734.38;10617707;28;20061;-52
2021/03/06 15:46:07;;;;;;;5.72;1.70;;;;;;;-0.53;30.88;98724.31;10624301;27;20361;-51
2021/03/06 15:51:08;;;;;;;5.65;2.40;;;;;;;-0.77;30.85;98730.81;10628684;27;20501;-52
2021/03/06 15:56:11;;;;;;;5.95;2.28;;;;;;;-0.95;30.88;98743.00;10629327;27;20051;-55
2021/03/06 16:01:13;;;;;;;5.57;2.58;;;;;;;-1.05;31.61;98732.31;10636464;27;20050;-54
2021/03/06 16:06:15;;;;;;;6.03;2.67;;;;;;;-1.17;31.56;98738.97;10599659;27;20111;-54
2021/03/06 16:11:18;;;;;;;6.05;2.60;;;;;;;-1.25;31.28;98741.09;10632839;27;20051;-58
2021/03/06 16:16:20;;;;;;;7.22;2.47;;;;;;;-1.32;31.46;98739.78;10637906;27;20109;-58
2021/03/06 16:21:21;;;;;;;4.75;2.63;;;;;;;-1.38;32.04;98744.41;10659343;27;20195;-52
2021/03/06 16:26:24;;;;;;;6.78;2.53;;;;;;;-1.45;32.16;98739.59;10676745;27;20461;-55
2021/03/06 16:31:26;;;;;;;6.70;2.22;;;;;;;-1.45;32.11;98738.72;10668501;27;20416;-52
2021/03/06 16:36:28;;;;;;;8.52;2.30;;;;;;;-1.56;32.27;98735.88;10659311;27;20046;-53
2021/03/06 16:41:30;;;;;;;7.10;2.38;;;;;;;-1.68;32.71;98733.00;10612787;27;20058;-54
2021/03/06 16:46:34;;;;;;;3.30;1.50;;;;;;;-1.70;32.47;98734.00;10610593;27;20043;-53
2021/03/06 16:51:36;;;;;;;7.07;2.97;;;;;;;-1.77;33.08;98732.66;10630268;27;20058;-53
2021/03/06 16:56:38;;;;;;;6.57;2.65;;;;;;;-1.82;32.66;98719.97;10630007;27;20043;-53
2021/03/06 17:01:40;;;;;;;6.68;2.35;;;;;;;-1.87;32.60;98724.56;10629657;27;20047;-55
2021/03/06 17:06:43;;;;;;;6.03;2.75;;;;;;;-1.90;32.78;98722.94;10629324;27;20073;-52
2021/03/06 17:11:45;;;;;;;4.95;2.45;;;;;;;-2.05;33.14;98712.59;10631967;27;20047;-54
2021/03/06 17:16:47;;;;;;;8.80;2.93;;;;;;;-2.12;32.83;98712.06;10629884;27;20051;-53
2021/03/06 17:21:49;;;;;;;5.13;1.85;;;;;;;-2.15;33.33;98720.75;10628035;27;20142;-52
2021/03/06 17:26:51;;;;;;;4.63;2.80;;;;;;;-2.29;33.48;98725.75;10627734;27;20133;-52
2021/03/06 17:31:53;;;;;;;7.15;2.72;;;;;;;-2.32;33.59;98718.16;10626809;27;20066;-52
2021/03/06 17:36:57;;;;;;;8.05;2.90;;;;;;;-2.41;33.55;98722.00;10629100;27;20127;-54
2021/03/06 17:42:00;;;;;;;6.32;2.45;;;;;;;-2.51;33.75;98710.50;10627934;27;20454;-51
2021/03/06 17:47:02;;;;;;;4.85;2.30;;;;;;;-2.57;33.58;98713.38;10626412;27;20049;-54
2021/03/06 17:52:04;;;;;;;6.05;2.38;;;;;;;-2.60;33.87;98709.19;10627914;27;20437;-57
2021/03/06 17:57:07;;;;;;;6.47;2.35;;;;;;;-2.64;33.99;98710.25;10633638;27;20050;-56
2021/03/06 18:02:09;;;;;;;12.05;2.67;;;;;;;-2.71;34.01;98702.88;10627705;27;20483;-52
2021/03/06 18:07:11;;;;;;;7.30;2.15;;;;;;;-2.78;34.27;98689.47;10664699;27;20042;-52
2021/03/06 18:12:14;;;;;;;6.18;2.05;;;;;;;-2.89;34.42;98687.44;10650991;27;20146;-52
2021/03/06 18:17:16;;;;;;;6.60;2.72;;;;;;;-2.94;34.51;98696.25;10649776;27;20046;-52
2021/03/06 18:22:18;;;;;;;6.90;3.08;;;;;;;-3.03;34.75;98684.66;10668238;27;20059;-52
2021/03/06 18:27:20;;;;;;;5.40;2.20;;;;;;;-3.10;34.75;98681.53;10668722;27;20058;-54
2021/03/06 18:32:22;;;;;;;10.32;2.05;;;;;;;-3.18;34.54;98678.47;10669048;27;20050;-52
2021/03/06 18:37:24;;;;;;;6.35;1.98;;;;;;;-3.25;34.92;98675.34;10629766;27;20192;-52
2021/03/06 18:42:27;;;;;;;7.18;1.85;;;;;;;-3.30;34.91;98667.00;10627168;27;20130;-62
2021/03/06 18:47:29;;;;;;;5.30;1.88;;;;;;;-3.33;35.09;98672.28;10625483;27;20043;-54
2021/03/06 18:52:31;;;;;;;6.22;2.08;;;;;;;-3.36;35.28;98669.03;10624880;27;20066;-53
2021/03/06 18:57:33;;;;;;;6.28;1.98;;;;;;;-3.43;35.18;98663.31;10624878;27;20146;-52
2021/03/06 19:02:35;;;;;;;5.50;2.10;;;;;;;-3.50;35.57;98649.94;10624589;27;20078;-53
2021/03/06 19:07:37;;;;;;;6.22;2.08;;;;;;;-3.57;35.44;98652.81;10606603;27;20134;-52
2021/03/06 19:12:40;;;;;;;4.97;2.30;;;;;;;-3.61;35.65;98646.16;10606812;27;20398;-53
2021/03/06 19:17:43;;;;;;;7.47;3.00;;;;;;;-3.70;35.60;98649.97;10627296;27;20138;-52
2021/03/06 19:22:46;;;;;;;6.87;2.80;;;;;;;-3.77;36.01;98649.41;10624635;27;20055;-53
2021/03/06 19:27:50;;;;;;;7.80;2.83;;;;;;;-3.78;35.63;98645.19;10624913;28;20047;-55
2021/03/06 19:32:52;;;;;;;6.60;2.50;;;;;;;-3.81;36.11;98637.63;10625412;28;20039;-58
2021/03/06 19:37:54;;;;;;;7.07;2.40;;;;;;;-3.87;35.70;98631.91;10630170;28;20177;-51
2021/03/06 19:42:56;;;;;;;6.55;2.42;;;;;;;-3.93;35.88;98617.59;10605121;28;20058;-57
2021/03/06 19:47:58;;;;;;;7.57;2.35;;;;;;;-4.00;35.91;98608.50;10623401;28;20051;-54
2021/03/06 19:53:00;;;;;;;6.35;2.53;;;;;;;-4.08;36.59;98602.88;10623729;28;20497;-54
2021/03/06 19:58:02;;;;;;;7.38;2.40;;;;;;;-4.15;36.73;98596.34;10584540;28;20399;-52
2021/03/06 20:03:04;;;;;;;5.50;1.80;;;;;;;-4.21;36.83;98593.13;10584520;28;20501;-54
2021/03/06 20:08:06;;;;;;;4.78;1.75;;;;;;;-4.24;36.59;98588.13;10623691;28;20047;-54
2021/03/06 20:13:09;;;;;;;6.50;2.13;;;;;;;-4.23;36.83;98571.00;10623869;28;20069;-52
2021/03/06 20:18:11;;;;;;;6.97;2.00;;;;;;;-4.25;36.92;98565.09;10622426;28;20142;-53
2021/03/06 20:23:13;;;;;;;5.28;2.25;;;;;;;-4.32;37.10;98553.44;10621979;28;20071;-52
2021/03/06 20:28:16;;;;;;;5.13;1.63;;;;;;;-4.27;36.92;98547.19;10622495;28;20149;-54
2021/03/06 20:33:17;;;;;;;5.17;1.53;;;;;;;-4.25;36.95;98542.84;10612891;27;20119;-52
2021/03/06 20:38:19;;;;;;;6.05;2.05;;;;;;;-4.27;37.00;98536.13;10601093;27;20107;-52
2021/03/06 20:43:22;;;;;;;4.10;1.75;;;;;;;-4.32;37.52;98525.22;10586510;28;20075;-57
2021/03/06 20:48:24;;;;;;;7.57;2.30;;;;;;;-4.37;37.58;98520.28;10570235;28;20047;-51
2021/03/06 20:53:25;;;;;;;4.93;1.90;;;;;;;-4.35;37.71;98499.69;10588452;28;20085;-58
2021/03/06 20:58:28;;;;;;;6.65;2.20;;;;;;;-4.38;38.03;98490.38;10588025;28;20051;-54
2021/03/06 21:03:30;;;;;;;6.00;2.38;;;;;;;-4.42;37.79;98470.91;10590677;27;20445;-54
2021/03/06 21:08:31;;;;;;;6.45;2.15;;;;;;;-4.42;37.78;98460.66;10611167;27;20371;-52
2021/03/06 21:13:34;;;;;;;7.30;2.22;;;;;;;-4.37;37.87;98458.72;10628654;27;20102;-53
2021/03/06 21:18:37;;;;;;;5.63;2.13;;;;;;;-4.35;38.10;98458.63;10628836;27;20436;-53
2021/03/06 21:23:38;;;;;;;4.05;1.58;;;;;;;-4.29;37.69;98446.38;10669633;27;20055;-52
2021/03/06 21:28:41;;;;;;;5.07;1.80;;;;;;;-4.22;37.74;98436.66;10670765;27;20046;-53
2021/03/06 21:33:43;;;;;;;7.13;1.67;;;;;;;-4.24;37.78;98429.03;10677172;27;20072;-53
2021/03/06 21:38:45;;;;;;;5.03;2.20;;;;;;;-4.34;38.14;98424.38;10639684;27;20146;-54
2021/03/06 21:43:48;;;;;;;6.72;2.40;;;;;;;-4.38;38.52;98405.72;10609537;27;20090;-52
2021/03/06 21:48:50;;;;;;;6.50;2.22;;;;;;;-4.50;38.90;98394.28;10609600;27;20490;-54
2021/03/06 21:53:52;;;;;;;7.97;2.53;;;;;;;-4.47;38.87;98391.56;10629284;27;20047;-54
2021/03/06 21:58:54;;;;;;;6.25;1.63;;;;;;;-4.46;38.87;98377.03;10628475;27;20047;-54
2021/03/06 22:03:56;;;;;;;6.22;2.15;;;;;;;-4.48;39.62;98376.28;10636561;27;20094;-54
2021/03/06 22:08:58;;;;;;;7.65;2.25;;;;;;;-4.53;39.46;98355.94;10670515;27;20079;-54
2021/03/06 22:14:00;;;;;;;3.92;1.73;;;;;;;-4.53;39.74;98357.69;10668940;27;20436;-52
2021/03/06 22:19:02;;;;;;;4.25;1.40;;;;;;;-4.58;39.94;98347.66;10669154;27;20562;-52
2021/03/06 22:24:05;;;;;;;5.20;2.10;;;;;;;-4.55;39.61;98332.13;10669764;27;20203;-52
2021/03/06 22:29:08;;;;;;;6.38;2.92;;;;;;;-4.51;39.56;98332.81;10649902;27;20051;-52
2021/03/06 22:34:10;;;;;;;3.78;1.33;;;;;;;-4.53;39.77;98303.81;10668467;27;20459;-52
2021/03/06 22:39:11;;;;;;;6.45;2.30;;;;;;;-4.68;40.32;98295.97;10631598;27;20093;-51
2021/03/06 22:44:15;;;;;;;5.22;2.10;;;;;;;-4.75;40.61;98286.88;10625139;27;20050;-52
2021/03/06 22:49:16;;;;;;;4.65;1.73;;;;;;;-4.77;40.63;98265.63;10624578;27;20111;-54
2021/03/06 22:54:18;;;;;;;3.83;1.33;;;;;;;-4.79;40.83;98266.59;10623864;27;20383;-54
2021/03/06 22:59:21;;;;;;;6.90;1.70;;;;;;;-4.85;40.65;98249.75;10623983;27;20071;-54
2021/03/06 23:04:23;;;;;;;4.97;1.67;;;;;;;-4.84;40.52;98248.84;10636923;27;20483;-53
2021/03/06 23:09:24;;;;;;;12.73;2.20;;;;;;;-4.91;40.71;98242.34;10667277;27;20054;-53
2021/03/06 23:14:27;;;;;;;4.65;1.52;;;;;;;-4.95;40.93;98231.41;10666284;27;20387;-52
2021/03/06 23:19:29;;;;;;;3.72;1.60;;;;;;;-5.00;40.74;98212.81;10670689;27;20059;-53
2021/03/06 23:24:30;;;;;;;6.32;2.15;;;;;;;-5.06;41.29;98207.16;10669670;27;20379;-52
2021/03/06 23:29:33;;;;;;;7.07;2.38;;;;;;;-5.15;41.18;98188.72;10650097;27;20058;-52
2021/03/06 23:34:35;;;;;;;6.70;2.10;;;;;;;-5.20;41.26;98162.50;10667409;27;20148;-54